Flight Information

DEPARTURE
SACRAMENTO, CA
Elevation:
26
Runways:
17L/35R - 8605x150 - CONC-G
17R/35L - 8598x150 - CONC-G
Active PE Departure:
17L - 17R
Current PE ATIS:
K
Altimeter:
29.88
Remarks:
V F R DEPARTURES CONTACT CLEARANCE DELIVERY, ADVISE ON COURSE HEADING, ALTITUDE, AND IF FLIGHT FOLLOWING IS REQUESTED.
ATIS:
126.75 916-874-0679
Clearance Delivery:
121.1
Ground:
121.7
Tower:
CAPITOL TOWER 125.7
DESTINATION
PHOENIX, AZ
Elevation:
1134
TPA:
2134 (est.)
Runways:
7L/25R - 10300x150 - CONC-G
7R/25L - 7800x150 - CONC-G
8/26 - 11489x150 - CONC-G
Active PE Arriving:
7R - 8
Active PE Approach:
VISUAL APPROACHES IN USE. ILS RUNWAY 7 RIGHT AND ILS RUNWAY 8 APPROACH IN USE.
Current PE ATIS:
H
Altimeter:
29.67
Remarks:
SIMULTANEOUS APPROACHES TO PARALLEL RUNWAYS IN USE. V F R DEPARTURES CONTACT CLEARANCE DELIVERY, ADVISE ON COURSE HEADING, ALTITUDE, AND IF FLIGHT FOLLOWING IS REQUESTED.
ATIS:
127.575
Tower:
PHOENIX TOWER
120.9 RWY 7L-25R, 7R-25L
118.7 RWY 8-26
Ground:
119.75 NORTH 132.55 SOUTH


561.2 NM121° True-16° Var105° HDG

Flight Plan:
(click to file on line)

1. Type
2. Aircraft Identification
3. Aircraft Type / Special Equipment
4. True Airspeed
kts
5. Departure Airport
(ICAO code)
6. Arriving Airport
(ICAO code)
7. Cruising Altitude
ft
8. Alternate Airport
(ICAO code)
9. Route of Flight
10. Remarks


00:00:00 Departure ATIS: Destination ATIS:

Clearance Limit:
Route:
Altitude: Expect in minutes
Frequency:
Transponder: (7500 Hijack / 7600 Lost Comms / 7700 Emergency)


KSMF 110353Z 20007KT 10SM CLR 19/08 A2990 RMK AO2 SLP124 T01940078
Time: 2021-04-11T03:53:00Z
1618113387
Winds: 200 @ 7 kts
Visibility: 10.0 sm
Clouds (AGL): CLR
Temperature: 19.4 C
Dew Point: 7.8 C
Pressure: 29.899607 in Hgbr

KPHX 110351Z 21003KT 10SM CLR 28/M03 A2968 RMK AO2 SLP036 T02781033
Time: 2021-04-11T03:51:00Z
1618113387
Winds: 210 @ 3 kts
Visibility: 10.0 sm
Clouds (AGL): CLR
Temperature: 27.8 C
Dew Point: -3.3 C
Pressure: 29.681103 in Hgbr


Notes:

Data extracted from FAA Digital Chart Supplement. Effective: 0901Z Thursday, Feb 25, 2021 to 0901Z Thursday, APR 22, 2021
Current ATIS data is provided courtisy of PilotEdge.